createdAt,value
2023-04-13T00:01:11.163Z,99647.16
2023-04-13T00:03:39.140Z,99634.59
2023-04-13T00:06:06.736Z,99621.66
2023-04-13T00:08:35.788Z,99638.38
2023-04-13T00:11:04.292Z,99640.72
2023-04-13T00:13:30.879Z,99634.88
2023-04-13T00:15:57.353Z,99627.66
2023-04-13T00:18:24.244Z,99640.88
2023-04-13T00:20:50.736Z,99628.75
2023-04-13T00:23:18.009Z,99600.63
2023-04-13T00:25:44.559Z,99628.03
2023-04-13T00:28:11.803Z,99622.75
2023-04-13T00:30:38.295Z,99622.88
2023-04-13T00:33:04.990Z,99620.69
2023-04-13T00:35:31.926Z,99626.38
2023-04-13T00:37:58.792Z,99620.00
2023-04-13T00:40:25.300Z,99626.00
2023-04-13T00:42:51.923Z,99624.19
2023-04-13T00:45:19.778Z,99621.66
2023-04-13T00:47:48.580Z,99618.47
2023-04-13T00:50:18.418Z,99616.66
2023-04-13T00:52:45.337Z,99611.50
2023-04-13T00:55:12.297Z,99590.09
2023-04-13T00:57:40.764Z,99624.75
2023-04-13T01:00:09.518Z,99611.78
2023-04-13T01:02:42.117Z,99610.25
2023-04-13T01:05:12.267Z,99621.41
2023-04-13T01:07:59.308Z,99583.16
2023-04-13T01:10:54.339Z,99624.34
2023-04-13T01:13:52.116Z,99623.50
2023-04-13T01:16:30.590Z,99618.53
2023-04-13T01:18:57.457Z,99621.31
2023-04-13T01:21:26.155Z,99610.44
2023-04-13T01:23:58.782Z,99618.25
2023-04-13T01:26:49.012Z,99593.47
2023-04-13T01:29:15.818Z,99629.41
2023-04-13T01:31:42.985Z,99627.50
2023-04-13T01:34:09.797Z,99588.78
2023-04-13T01:36:39.877Z,99617.47
2023-04-13T01:39:06.309Z,99616.19
2023-04-13T01:41:32.721Z,99604.09
2023-04-13T01:43:59.557Z,99621.22
2023-04-13T01:46:29.866Z,99619.72
2023-04-13T01:49:01.641Z,99597.84
2023-04-13T01:51:34.605Z,99613.31
2023-04-13T01:54:12.893Z,99613.03
2023-04-13T01:56:40.688Z,99605.81
2023-04-13T01:59:07.718Z,99606.47
2023-04-13T02:01:34.335Z,99606.50
2023-04-13T02:04:02.739Z,99589.78
2023-04-13T02:06:29.649Z,99582.28
2023-04-13T02:08:56.115Z,99601.75
2023-04-13T02:11:22.655Z,99603.31
2023-04-13T02:13:49.616Z,99590.91
2023-04-13T02:16:16.186Z,99615.41
2023-04-13T02:18:42.938Z,99618.59
2023-04-13T02:21:09.719Z,99618.06
2023-04-13T02:23:37.785Z,99621.09
2023-04-13T02:26:06.757Z,99612.72
2023-04-13T02:28:33.603Z,99588.09
2023-04-13T02:31:00.330Z,99617.75
2023-04-13T02:33:32.753Z,99593.47
2023-04-13T02:36:00.379Z,99624.13
2023-04-13T02:38:30.561Z,99611.84
2023-04-13T02:41:01.905Z,99627.13
2023-04-13T02:43:31.323Z,99616.09
2023-04-13T02:45:58.192Z,99625.81
2023-04-13T02:48:25.662Z,99618.97
2023-04-13T02:50:53.320Z,99630.44
2023-04-13T02:53:20.032Z,99623.72
2023-04-13T02:55:50.129Z,99629.00
2023-04-13T02:58:16.619Z,99614.97
2023-04-13T03:00:44.498Z,99620.50
2023-04-13T03:03:11.086Z,99595.28
2023-04-13T03:05:38.744Z,99620.78
2023-04-13T03:08:05.274Z,99615.09
2023-04-13T03:10:31.846Z,99627.31
2023-04-13T03:12:58.772Z,99611.16
2023-04-13T03:15:25.249Z,99623.13
2023-04-13T03:17:51.775Z,99616.44
2023-04-13T03:20:20.709Z,99619.09
2023-04-13T03:22:47.124Z,99619.09
2023-04-13T03:25:13.528Z,99614.63
2023-04-13T03:27:40.003Z,99610.44
2023-04-13T03:30:07.651Z,99606.69
2023-04-13T03:32:34.471Z,99608.06
2023-04-13T03:35:01.799Z,99618.38
2023-04-13T03:37:30.495Z,99601.66
2023-04-13T03:39:58.406Z,99607.81
2023-04-13T03:42:24.931Z,99599.19
2023-04-13T03:44:51.465Z,99616.75
2023-04-13T03:47:18.093Z,99605.88
2023-04-13T03:49:44.575Z,99589.88
2023-04-13T03:52:11.092Z,99612.84
2023-04-13T03:54:38.129Z,99595.31
2023-04-13T03:57:05.054Z,99608.97
2023-04-13T03:59:31.559Z,99608.03
2023-04-13T04:01:58.526Z,99593.53
2023-04-13T04:04:25.384Z,99613.19
2023-04-13T04:06:52.109Z,99618.78
2023-04-13T04:09:18.557Z,99616.56
2023-04-13T04:11:45.524Z,99615.19
2023-04-13T04:14:12.015Z,99601.00
2023-04-13T04:16:38.543Z,99616.03
2023-04-13T04:19:05.026Z,99622.88
2023-04-13T04:21:34.345Z,99616.34
2023-04-13T04:24:06.112Z,99587.91
2023-04-13T04:26:32.644Z,99621.94
2023-04-13T04:29:07.087Z,99623.44
2023-04-13T04:31:36.870Z,99602.41
2023-04-13T04:34:04.296Z,99622.47
2023-04-13T04:36:30.901Z,99632.09
2023-04-13T04:39:02.147Z,99629.59
2023-04-13T04:41:29.313Z,99573.34
2023-04-13T04:43:56.720Z,99611.09
2023-04-13T04:46:27.260Z,99622.38
2023-04-13T04:48:54.200Z,99633.25
2023-04-13T04:51:24.799Z,99599.41
2023-04-13T04:53:52.911Z,99624.06
2023-04-13T04:56:19.664Z,99625.00
2023-04-13T04:58:46.327Z,99633.25
2023-04-13T05:01:12.888Z,99600.50
2023-04-13T05:03:39.381Z,99627.00
2023-04-13T05:06:06.258Z,99605.66
2023-04-13T05:08:33.058Z,99642.44
2023-04-13T05:10:59.596Z,99638.69
2023-04-13T05:13:26.068Z,99625.28
2023-04-13T05:15:52.611Z,99623.72
2023-04-13T05:18:19.204Z,99628.88
2023-04-13T05:20:45.872Z,99624.38
2023-04-13T05:23:12.534Z,99620.75
2023-04-13T05:25:39.512Z,99628.78
2023-04-13T05:28:06.280Z,99631.09
2023-04-13T05:30:33.005Z,99625.91
2023-04-13T05:33:02.064Z,99624.88
2023-04-13T05:35:28.584Z,99626.09
2023-04-13T05:37:57.063Z,99631.38
2023-04-13T05:40:23.862Z,99636.75
2023-04-13T05:42:50.243Z,99618.09
2023-04-13T05:45:16.790Z,99601.72
2023-04-13T05:47:45.371Z,99631.03
2023-04-13T05:50:12.847Z,99640.06
2023-04-13T05:52:39.312Z,99631.78
2023-04-13T05:55:06.926Z,99650.00
2023-04-13T05:57:33.390Z,99647.19
2023-04-13T05:59:59.839Z,99656.44
2023-04-13T06:02:26.795Z,99649.56
2023-04-13T06:04:55.190Z,99651.38
2023-04-13T06:07:22.254Z,99614.75
2023-04-13T06:09:48.813Z,99646.63
2023-04-13T06:12:15.959Z,99651.41
2023-04-13T06:14:43.015Z,99654.44
2023-04-13T06:17:09.568Z,99630.59
2023-04-13T06:19:36.182Z,99646.28
2023-04-13T06:22:02.682Z,99652.94
2023-04-13T06:24:29.139Z,99645.38
2023-04-13T06:26:55.581Z,99645.28
2023-04-13T06:29:22.047Z,99650.97
2023-04-13T06:31:48.529Z,99636.22
2023-04-13T06:34:15.439Z,99656.84
2023-04-13T06:36:41.970Z,99651.22
2023-04-13T06:39:09.223Z,99640.94
2023-04-13T06:41:36.014Z,99644.91
2023-04-13T06:44:02.519Z,99629.47
2023-04-13T06:46:38.522Z,99631.16
2023-04-13T06:49:05.305Z,99651.97
2023-04-13T06:51:31.976Z,99633.47
2023-04-13T06:53:58.427Z,99644.00
2023-04-13T06:56:24.972Z,99651.66
2023-04-13T06:58:51.566Z,99643.50
2023-04-13T07:01:18.047Z,99659.34
2023-04-13T07:03:44.799Z,99658.03
2023-04-13T07:06:11.630Z,99665.69
2023-04-13T07:08:38.172Z,99649.91
2023-04-13T07:11:04.784Z,99652.75
2023-04-13T07:13:34.207Z,99660.09
2023-04-13T07:16:00.857Z,99654.00
2023-04-13T07:18:27.326Z,99668.97
2023-04-13T07:20:53.743Z,99632.13
2023-04-13T07:23:20.224Z,99656.34
2023-04-13T07:25:46.873Z,99656.84
2023-04-13T07:28:13.383Z,99657.00
2023-04-13T07:30:46.817Z,99651.84
2023-04-13T07:33:13.853Z,99667.53
2023-04-13T07:35:40.664Z,99641.91
2023-04-13T07:38:07.234Z,99646.25
2023-04-13T07:40:35.742Z,99635.09
2023-04-13T07:43:10.117Z,99642.91
2023-04-13T07:45:36.670Z,99677.78
2023-04-13T07:48:03.318Z,99661.94
2023-04-13T07:50:30.061Z,99676.91
2023-04-13T07:52:56.645Z,99679.91
2023-04-13T07:55:23.141Z,99689.72
2023-04-13T07:57:49.681Z,99677.41
2023-04-13T08:00:18.331Z,99675.03
2023-04-13T08:02:44.973Z,99657.41
2023-04-13T08:05:12.477Z,99698.69
2023-04-13T08:07:38.983Z,99692.69
2023-04-13T08:10:06.660Z,99693.50
2023-04-13T08:12:33.193Z,99671.19
2023-04-13T08:14:59.587Z,99730.16
2023-04-13T08:17:26.452Z,99691.63
2023-04-13T08:19:52.934Z,99719.16
2023-04-13T08:22:19.830Z,99731.66
2023-04-13T08:24:46.338Z,99717.78
2023-04-13T08:27:12.856Z,99731.13
2023-04-13T08:29:39.328Z,99741.25
2023-04-13T08:32:06.148Z,99743.47
2023-04-13T08:34:32.667Z,99752.66
2023-04-13T08:36:59.147Z,99756.16
2023-04-13T08:39:25.998Z,99726.00
2023-04-13T08:41:52.557Z,99754.47
2023-04-13T08:44:19.122Z,99755.44
2023-04-13T08:46:46.646Z,99761.81
2023-04-13T08:49:13.262Z,99742.13
2023-04-13T08:51:42.081Z,99760.09
2023-04-13T08:54:08.754Z,99771.78
2023-04-13T08:56:46.367Z,99777.59
2023-04-13T08:59:16.020Z,99771.91
2023-04-13T09:01:45.510Z,99767.91
2023-04-13T09:04:14.149Z,99760.66
2023-04-13T09:06:43.007Z,99792.63
2023-04-13T09:09:14.193Z,99787.50
2023-04-13T09:11:42.246Z,99779.06
2023-04-13T09:14:09.995Z,99791.16
2023-04-13T09:16:41.097Z,99805.59
2023-04-13T09:19:11.403Z,99805.28
2023-04-13T09:21:41.045Z,99817.59
2023-04-13T09:24:08.515Z,99823.28
2023-04-13T09:26:42.966Z,99823.25
2023-04-13T09:29:14.141Z,99819.00
2023-04-13T09:31:42.920Z,99819.28
2023-04-13T09:34:11.245Z,99812.34
2023-04-13T09:36:46.614Z,99834.25
2023-04-13T09:39:28.385Z,99825.16
2023-04-13T09:41:55.354Z,99824.03
2023-04-13T09:44:28.189Z,99806.69
2023-04-13T09:47:02.089Z,99851.53
2023-04-13T09:49:42.732Z,99845.03
2023-04-13T09:52:25.101Z,99837.72
2023-04-13T09:54:57.772Z,99851.56
2023-04-13T09:57:32.095Z,99864.94
2023-04-13T10:00:01.615Z,99872.06
2023-04-13T10:02:28.743Z,99829.63
2023-04-13T10:04:55.828Z,99875.66
2023-04-13T10:07:26.729Z,99867.06
2023-04-13T10:09:57.961Z,99856.66
2023-04-13T10:12:26.878Z,99869.00
2023-04-13T10:15:01.575Z,99874.78
2023-04-13T10:17:56.001Z,99886.16
2023-04-13T10:20:23.007Z,99891.97
2023-04-13T10:22:50.885Z,99893.94
2023-04-13T10:25:31.971Z,99879.72
2023-04-13T10:28:00.639Z,99895.66
2023-04-13T10:30:28.120Z,99904.56
2023-04-13T10:33:05.795Z,99894.91
2023-04-13T10:35:37.055Z,99914.72
2023-04-13T10:38:04.261Z,99911.69
2023-04-13T10:40:42.192Z,99890.31
2023-04-13T10:43:08.697Z,99921.59
2023-04-13T10:45:37.753Z,99929.72
2023-04-13T10:48:04.598Z,99927.66
2023-04-13T10:50:31.396Z,99935.59
2023-04-13T10:53:05.655Z,99928.50
2023-04-13T10:55:35.567Z,99923.47
2023-04-13T10:58:03.260Z,99948.22
2023-04-13T11:00:42.325Z,99910.16
2023-04-13T11:03:12.549Z,99958.47
2023-04-13T11:05:39.799Z,99938.56
2023-04-13T11:08:06.783Z,99926.50
2023-04-13T11:10:33.557Z,99940.47
2023-04-13T11:13:00.091Z,99954.16
2023-04-13T11:15:30.506Z,99950.34
2023-04-13T11:17:58.899Z,99947.13
2023-04-13T11:20:37.649Z,99942.69
2023-04-13T11:23:06.383Z,99914.56
2023-04-13T11:25:36.168Z,99962.06
2023-04-13T11:28:04.079Z,99987.81
2023-04-13T11:30:32.392Z,99974.78
2023-04-13T11:33:01.321Z,99990.34
2023-04-13T11:35:28.047Z,99972.66
2023-04-13T11:37:56.019Z,99980.34
2023-04-13T11:40:27.323Z,99953.88
2023-04-13T11:42:55.850Z,99980.53
2023-04-13T11:45:25.821Z,99973.19
2023-04-13T11:47:53.358Z,99987.25
2023-04-13T11:50:21.457Z,99985.59
2023-04-13T11:52:51.279Z,99990.41
2023-04-13T11:55:23.809Z,99974.25
2023-04-13T11:57:52.967Z,99984.31
2023-04-13T12:00:27.252Z,99946.78
2023-04-13T12:05:27.862Z,99987.81
2023-04-13T12:07:57.536Z,99968.84
2023-04-13T12:10:39.097Z,99995.00
2023-04-13T12:16:04.947Z,99968.44
2023-04-13T12:18:37.230Z,99989.88
2023-04-13T12:21:05.706Z,100017.47
2023-04-13T12:23:32.857Z,99990.00
2023-04-13T12:28:49.850Z,100007.75
2023-04-13T12:31:16.475Z,99992.81
2023-04-13T12:33:43.005Z,100010.28
2023-04-13T12:36:12.565Z,99949.22
2023-04-13T12:38:39.324Z,100024.25
2023-04-13T12:41:09.928Z,100015.53
2023-04-13T12:43:36.589Z,100021.19
2023-04-13T12:46:03.086Z,99958.31
2023-04-13T12:48:30.813Z,100003.31
2023-04-13T12:50:57.267Z,100016.00
2023-04-13T12:53:23.823Z,100023.28
2023-04-13T12:55:50.405Z,100008.13
2023-04-13T12:58:16.878Z,100030.31
2023-04-13T13:00:43.351Z,100035.66
2023-04-13T13:03:14.950Z,100041.63
2023-04-13T13:05:41.979Z,100029.16
2023-04-13T13:08:09.191Z,100027.78
2023-04-13T13:10:37.318Z,100045.03
2023-04-13T13:13:04.149Z,100052.38
2023-04-13T13:15:31.880Z,100059.13
2023-04-13T13:18:00.767Z,100047.28
2023-04-13T13:20:27.533Z,100048.13
2023-04-13T13:22:54.171Z,100039.22
2023-04-13T13:25:21.157Z,100050.50
2023-04-13T13:30:18.140Z,100056.03
2023-04-13T13:32:44.748Z,100062.09
2023-04-13T13:35:11.691Z,100067.50
2023-04-13T13:37:39.668Z,100068.34
2023-04-13T13:40:12.811Z,100060.19
2023-04-13T13:42:50.821Z,100043.38
2023-04-13T13:45:18.673Z,100064.22
2023-04-13T13:47:57.783Z,100075.91
2023-04-13T13:50:24.383Z,100078.44
2023-04-13T13:53:03.290Z,100087.38
2023-04-13T13:55:31.485Z,100106.81
2023-04-13T13:57:58.166Z,100061.91
2023-04-13T14:00:25.742Z,100097.47
2023-04-13T14:02:53.035Z,100082.38
2023-04-13T14:05:21.750Z,100111.22
2023-04-13T14:07:48.266Z,100124.16
2023-04-13T14:10:14.732Z,100126.75
2023-04-13T14:12:45.152Z,100146.59
2023-04-13T14:15:12.876Z,100189.69
2023-04-13T14:17:40.310Z,100206.97
2023-04-13T14:20:11.762Z,100194.28
2023-04-13T14:22:39.719Z,100218.50
2023-04-13T14:25:07.405Z,100227.03
2023-04-13T14:27:34.023Z,100205.00
2023-04-13T14:30:01.884Z,100208.97
2023-04-13T14:32:29.076Z,100187.66
2023-04-13T14:34:59.940Z,100194.56
2023-04-13T14:37:29.645Z,100216.97
2023-04-13T14:39:56.103Z,100219.78
2023-04-13T14:42:24.521Z,100225.50
2023-04-13T14:44:51.872Z,100223.63
2023-04-13T14:47:19.092Z,100208.94
2023-04-13T14:49:46.378Z,100233.13
2023-04-13T14:52:14.219Z,100232.25
2023-04-13T14:54:40.752Z,100221.59
2023-04-13T14:57:07.283Z,100229.06
2023-04-13T14:59:33.763Z,100227.28
2023-04-13T15:02:00.883Z,100233.81
2023-04-13T15:04:28.146Z,100244.44
2023-04-13T15:06:54.756Z,100241.22
2023-04-13T15:09:21.912Z,100244.09
2023-04-13T15:11:49.184Z,100257.28
2023-04-13T15:14:15.634Z,100240.81
2023-04-13T15:16:42.136Z,100265.22
2023-04-13T15:19:08.796Z,100254.50
2023-04-13T15:21:36.213Z,100251.72
2023-04-13T15:24:02.733Z,100208.91
2023-04-13T15:26:29.781Z,100272.13
2023-04-13T15:28:56.244Z,100248.38
2023-04-13T15:31:22.938Z,100269.88
2023-04-13T15:33:49.332Z,100275.53
2023-04-13T15:36:16.566Z,100270.97
2023-04-13T15:38:43.199Z,100283.69
2023-04-13T15:41:11.090Z,100276.28
2023-04-13T15:43:38.480Z,100275.81
2023-04-13T15:46:05.157Z,100286.22
2023-04-13T15:48:31.893Z,100301.03
2023-04-13T15:51:00.998Z,100286.09
2023-04-13T15:53:28.058Z,100276.84
2023-04-13T15:55:54.536Z,100310.00
2023-04-13T15:58:21.664Z,100306.78
2023-04-13T16:01:03.654Z,100299.19
2023-04-13T16:03:30.996Z,100314.41
2023-04-13T16:05:57.743Z,100316.84
2023-04-13T16:08:24.314Z,100310.41
2023-04-13T16:10:51.175Z,100301.47
2023-04-13T16:13:20.162Z,100332.56
2023-04-13T16:15:55.580Z,100329.34
2023-04-13T16:18:30.050Z,100336.41
2023-04-13T16:21:02.357Z,100330.91
2023-04-13T16:23:29.671Z,100358.06
2023-04-13T16:25:56.101Z,100360.59
2023-04-13T16:28:22.655Z,100365.84
2023-04-13T16:30:49.449Z,100380.66
2023-04-13T16:33:16.065Z,100396.09
2023-04-13T16:35:42.555Z,100383.09
2023-04-13T16:38:09.007Z,100377.91
2023-04-13T16:40:35.983Z,100360.38
2023-04-13T16:43:04.162Z,100387.41
2023-04-13T16:45:30.880Z,100399.97
2023-04-13T16:47:57.383Z,100412.31
2023-04-13T16:50:28.513Z,100409.56
2023-04-13T16:52:56.648Z,100392.97
2023-04-13T16:55:23.263Z,100412.59
2023-04-13T16:57:50.548Z,100426.22
2023-04-13T17:00:18.079Z,100428.28
2023-04-13T17:02:44.897Z,100402.09
2023-04-13T17:05:12.549Z,100417.97
2023-04-13T17:07:40.981Z,100413.31
2023-04-13T17:10:08.843Z,100423.88
2023-04-13T17:12:35.725Z,100429.81
2023-04-13T17:15:02.233Z,100435.56
2023-04-13T17:17:28.731Z,100419.19
2023-04-13T17:19:55.423Z,100438.72
2023-04-13T17:22:22.549Z,100439.75
2023-04-13T17:24:49.544Z,100454.56
2023-04-13T17:27:19.106Z,100450.38
2023-04-13T17:29:45.614Z,100448.72
2023-04-13T17:32:12.216Z,100448.72
2023-04-13T17:34:38.821Z,100434.78
2023-04-13T17:37:06.835Z,100464.59
2023-04-13T17:39:35.093Z,100469.91
2023-04-13T17:42:02.060Z,100472.06
2023-04-13T17:44:28.618Z,100484.91
2023-04-13T17:46:55.086Z,100478.81
2023-04-13T17:49:22.068Z,100487.44
2023-04-13T17:51:49.007Z,100475.78
2023-04-13T17:54:21.126Z,100513.34
2023-04-13T17:56:47.553Z,100443.38
2023-04-13T17:59:16.788Z,100502.56
2023-04-13T18:01:43.736Z,100517.13
2023-04-13T18:04:14.653Z,100514.53
2023-04-13T18:06:41.343Z,100524.13
2023-04-13T18:09:18.226Z,100464.31
2023-04-13T18:11:44.776Z,100525.13
2023-04-13T18:14:15.982Z,100524.34
2023-04-13T18:16:42.664Z,100528.91
2023-04-13T18:19:09.199Z,100554.66
2023-04-13T18:21:37.054Z,100532.50
2023-04-13T18:24:03.924Z,100538.75
2023-04-13T18:26:30.549Z,100553.19
2023-04-13T18:28:56.978Z,100541.06
2023-04-13T18:31:23.680Z,100555.47
2023-04-13T18:33:50.269Z,100563.47
2023-04-13T18:36:17.836Z,100536.31
2023-04-13T18:38:45.499Z,100572.91
2023-04-13T18:41:12.771Z,100601.06
2023-04-13T18:43:39.788Z,100566.47
2023-04-13T18:46:07.740Z,100605.13
2023-04-13T18:48:34.647Z,100615.47
2023-04-13T18:51:04.025Z,100616.09
2023-04-13T18:53:30.997Z,100615.19
2023-04-13T18:55:58.254Z,100626.72
2023-04-13T18:58:24.709Z,100620.53
2023-04-13T19:00:51.287Z,100605.16
2023-04-13T19:03:20.137Z,100579.66
2023-04-13T19:05:47.229Z,100625.47
2023-04-13T19:08:13.912Z,100626.63
2023-04-13T19:10:41.607Z,100622.41
2023-04-13T19:13:08.123Z,100631.38
2023-04-13T19:15:35.649Z,100622.28
2023-04-13T19:18:04.170Z,100639.94
2023-04-13T19:20:31.108Z,100641.50
2023-04-13T19:22:57.673Z,100643.47
2023-04-13T19:25:24.179Z,100642.75
2023-04-13T19:27:51.013Z,100637.44
2023-04-13T19:30:19.092Z,100643.91
2023-04-13T19:32:47.885Z,100641.38
2023-04-13T19:35:14.792Z,100635.59
2023-04-13T19:37:41.805Z,100629.75
2023-04-13T19:40:15.354Z,100647.28
2023-04-13T19:42:44.012Z,100646.59
2023-04-13T19:45:12.187Z,100637.59
2023-04-13T19:47:39.807Z,100646.56
2023-04-13T19:50:09.333Z,100584.19
2023-04-13T19:52:36.126Z,100613.09
2023-04-13T19:55:02.858Z,100654.16
2023-04-13T19:57:30.569Z,100664.13
2023-04-13T19:59:57.622Z,100659.34
2023-04-13T20:02:24.281Z,100654.28
2023-04-13T20:04:51.049Z,100653.97
2023-04-13T20:07:17.877Z,100668.41
2023-04-13T20:09:44.698Z,100676.38
2023-04-13T20:12:12.014Z,100670.28
2023-04-13T20:14:41.922Z,100674.59
2023-04-13T20:17:09.004Z,100672.91
2023-04-13T20:19:36.371Z,100669.06
2023-04-13T20:22:04.218Z,100670.00
2023-04-13T20:24:31.508Z,100674.41
2023-04-13T20:26:58.634Z,100652.56
2023-04-13T20:29:26.963Z,100678.22
2023-04-13T20:31:54.369Z,100674.53
2023-04-13T20:34:21.839Z,100684.84
2023-04-13T20:36:48.320Z,100679.34
2023-04-13T20:39:14.968Z,100694.44
2023-04-13T20:41:41.459Z,100693.00
2023-04-13T20:44:09.939Z,100672.00
2023-04-13T20:46:37.520Z,100697.53
2023-04-13T20:49:05.032Z,100706.00
2023-04-13T20:51:33.650Z,100707.88
2023-04-13T20:54:02.890Z,100717.63
2023-04-13T20:56:29.894Z,100715.34
2023-04-13T20:58:57.722Z,100717.69
2023-04-13T21:01:27.997Z,100710.94
2023-04-13T21:03:54.460Z,100711.41
2023-04-13T21:06:22.892Z,100713.38
2023-04-13T21:08:49.598Z,100711.81
2023-04-13T21:11:16.219Z,100689.28
2023-04-13T21:13:42.843Z,100708.91
2023-04-13T21:16:11.103Z,100667.97
2023-04-13T21:18:37.638Z,100717.53
2023-04-13T21:21:06.142Z,100713.41
2023-04-13T21:23:32.789Z,100723.44
2023-04-13T21:25:59.282Z,100717.53
2023-04-13T21:28:26.278Z,100715.25
2023-04-13T21:30:52.741Z,100689.44
2023-04-13T21:33:19.207Z,100711.50
2023-04-13T21:35:45.692Z,100714.66
2023-04-13T21:38:12.177Z,100713.94
2023-04-13T21:40:38.691Z,100695.97
2023-04-13T21:43:05.285Z,100701.41
2023-04-13T21:45:32.106Z,100712.13
2023-04-13T21:47:58.736Z,100719.50
2023-04-13T21:50:25.224Z,100712.13
2023-04-13T21:52:51.873Z,100719.38
2023-04-13T21:55:18.500Z,100723.34
2023-04-13T21:57:45.873Z,100717.53
2023-04-13T22:00:14.353Z,100707.16
2023-04-13T22:02:41.674Z,100714.78
2023-04-13T22:05:09.975Z,100726.91
2023-04-13T22:07:42.386Z,100722.56
2023-04-13T22:10:12.911Z,100715.34
2023-04-13T22:12:39.383Z,100728.81
2023-04-13T22:15:06.436Z,100692.75
2023-04-13T22:17:32.913Z,100708.16
2023-04-13T22:19:59.428Z,100726.03
2023-04-13T22:22:25.826Z,100733.34
2023-04-13T22:24:53.101Z,100726.44
2023-04-13T22:27:19.631Z,100735.88
2023-04-13T22:29:47.412Z,100736.09
2023-04-13T22:32:14.187Z,100735.34
2023-04-13T22:34:40.603Z,100729.31
2023-04-13T22:37:07.101Z,100727.75
2023-04-13T22:39:33.557Z,100717.41
2023-04-13T22:42:00.044Z,100697.19
2023-04-13T22:44:32.420Z,100725.47
2023-04-13T22:46:58.981Z,100727.56
2023-04-13T22:49:25.575Z,100731.16
2023-04-13T22:51:51.993Z,100697.84
2023-04-13T22:54:18.452Z,100738.50
2023-04-13T22:56:44.849Z,100741.38
2023-04-13T22:59:11.238Z,100740.66
2023-04-13T23:01:37.777Z,100727.34
2023-04-13T23:04:04.764Z,100744.59
2023-04-13T23:06:31.644Z,100743.97
2023-04-13T23:08:59.483Z,100746.72
2023-04-13T23:11:26.168Z,100756.47
2023-04-13T23:13:56.637Z,100756.56
2023-04-13T23:16:23.241Z,100762.00
2023-04-13T23:18:49.744Z,100755.22
2023-04-13T23:21:16.314Z,100761.38
2023-04-13T23:23:42.834Z,100769.41
2023-04-13T23:26:09.333Z,100768.69
2023-04-13T23:28:35.941Z,100772.28
2023-04-13T23:31:08.731Z,100776.00
2023-04-13T23:33:36.028Z,100778.84
2023-04-13T23:36:03.013Z,100778.16
2023-04-13T23:38:30.732Z,100780.06
2023-04-13T23:40:57.739Z,100773.50
2023-04-13T23:43:24.955Z,100774.66
2023-04-13T23:45:52.901Z,100746.22
2023-04-13T23:48:21.291Z,100773.72
2023-04-13T23:50:48.191Z,100775.75
2023-04-13T23:53:15.447Z,100763.16
2023-04-13T23:55:42.323Z,100784.44
2023-04-13T23:58:08.787Z,100798.63
